createdAt,value
2019-06-26T00:00:55.871Z,23.60
2019-06-26T00:03:26.294Z,23.50
2019-06-26T00:05:56.647Z,23.50
2019-06-26T00:08:27.036Z,23.40
2019-06-26T00:10:57.407Z,23.40
2019-06-26T00:13:27.833Z,23.40
2019-06-26T00:15:58.204Z,23.30
2019-06-26T00:18:28.636Z,23.30
2019-06-26T00:20:59.106Z,23.20
2019-06-26T00:23:29.543Z,23.20
2019-06-26T00:25:59.923Z,23.20
2019-06-26T00:28:30.329Z,23.10
2019-06-26T00:31:00.730Z,23.10
2019-06-26T00:33:31.118Z,23.10
2019-06-26T00:36:01.521Z,23.10
2019-06-26T00:38:31.905Z,23.10
2019-06-26T00:41:02.338Z,23.20
2019-06-26T00:43:41.917Z,23.30
2019-06-26T00:46:04.842Z,23.40
2019-06-26T00:48:35.215Z,23.50
2019-06-26T00:51:05.658Z,23.50
2019-06-26T00:53:36.013Z,23.50
2019-06-26T00:56:06.425Z,23.40
2019-06-26T00:58:36.795Z,23.40
2019-06-26T01:01:07.197Z,23.20
2019-06-26T01:03:37.585Z,23.20
2019-06-26T01:06:10.323Z,23.10
2019-06-26T01:08:40.675Z,23.10
2019-06-26T01:11:11.073Z,23.00
2019-06-26T01:13:54.352Z,22.90
2019-06-26T01:16:13.557Z,22.90
2019-06-26T01:18:43.973Z,22.90
2019-06-26T01:21:14.357Z,22.80
2019-06-26T01:23:44.728Z,22.70
2019-06-26T01:26:15.123Z,22.70
2019-06-26T01:28:45.511Z,22.60
2019-06-26T01:31:15.915Z,22.60
2019-06-26T01:33:46.283Z,22.60
2019-06-26T01:36:16.673Z,22.50
2019-06-26T01:38:47.058Z,22.50
2019-06-26T01:41:17.459Z,22.50
2019-06-26T01:43:47.854Z,22.50
2019-06-26T01:46:18.237Z,22.50
2019-06-26T01:48:48.602Z,22.50
2019-06-26T01:51:19.026Z,22.40
2019-06-26T01:53:49.418Z,22.40
2019-06-26T01:56:19.802Z,22.30
2019-06-26T01:58:50.175Z,22.30
2019-06-26T02:01:20.555Z,22.30
2019-06-26T02:03:50.915Z,22.30
2019-06-26T02:06:21.387Z,22.30
2019-06-26T02:08:51.792Z,22.30
2019-06-26T02:11:22.186Z,22.20
2019-06-26T02:13:52.586Z,22.20
2019-06-26T02:16:22.955Z,22.20
2019-06-26T02:18:59.995Z,22.20
2019-06-26T02:21:31.148Z,22.20
2019-06-26T02:24:01.507Z,22.20
2019-06-26T02:26:31.927Z,22.10
2019-06-26T02:29:02.377Z,22.10
2019-06-26T02:31:32.785Z,22.20
2019-06-26T02:34:03.188Z,22.10
2019-06-26T02:36:33.543Z,22.10
2019-06-26T02:39:05.750Z,22.10
2019-06-26T02:41:36.305Z,22.10
2019-06-26T02:44:06.709Z,22.10
2019-06-26T02:46:37.071Z,22.00
2019-06-26T02:49:07.526Z,22.00
2019-06-26T02:51:37.950Z,22.00
2019-06-26T02:54:08.364Z,22.00
2019-06-26T02:56:38.743Z,21.90
2019-06-26T02:59:09.130Z,21.90
2019-06-26T03:01:39.551Z,21.90
2019-06-26T03:04:09.948Z,21.90
2019-06-26T03:06:40.332Z,21.90
2019-06-26T03:09:10.743Z,21.90
2019-06-26T03:11:41.089Z,21.90
2019-06-26T03:14:11.579Z,21.90
2019-06-26T03:16:41.944Z,21.80
2019-06-26T03:19:12.365Z,21.90
2019-06-26T03:21:42.749Z,21.90
2019-06-26T03:24:13.181Z,21.90
2019-06-26T03:26:43.528Z,21.90
2019-06-26T03:29:15.926Z,21.90
2019-06-26T03:31:46.034Z,21.90
2019-06-26T03:34:16.460Z,21.90
2019-06-26T03:36:46.826Z,21.90
2019-06-26T03:39:17.227Z,21.90
2019-06-26T03:41:47.668Z,21.90
2019-06-26T03:44:18.091Z,21.90
2019-06-26T03:46:48.535Z,21.90
2019-06-26T03:49:18.921Z,22.00
2019-06-26T03:51:49.307Z,22.00
2019-06-26T03:54:19.718Z,22.00
2019-06-26T03:56:50.072Z,22.00
2019-06-26T03:59:20.462Z,22.00
2019-06-26T04:01:50.853Z,22.10
2019-06-26T04:04:21.324Z,22.10
2019-06-26T04:06:51.713Z,22.10
2019-06-26T04:09:22.131Z,22.10
2019-06-26T04:11:52.487Z,22.10
2019-06-26T04:14:22.880Z,22.20
2019-06-26T04:16:53.288Z,22.20
2019-06-26T04:19:23.691Z,22.20
2019-06-26T04:21:54.102Z,22.30
2019-06-26T04:24:24.478Z,22.30
2019-06-26T04:26:54.878Z,22.30
2019-06-26T04:29:25.255Z,22.40
2019-06-26T04:31:55.721Z,22.40
2019-06-26T04:34:26.115Z,22.40
2019-06-26T04:36:56.501Z,22.50
2019-06-26T04:39:26.900Z,22.60
2019-06-26T04:41:57.314Z,22.60
2019-06-26T04:44:27.731Z,22.60
2019-06-26T04:46:58.143Z,22.70
2019-06-26T04:49:28.560Z,22.70
2019-06-26T04:51:59.036Z,22.80
2019-06-26T04:54:29.520Z,22.80
2019-06-26T04:56:59.976Z,22.90
2019-06-26T04:59:30.407Z,22.90
2019-06-26T05:02:00.848Z,23.00
2019-06-26T05:04:31.239Z,23.00
2019-06-26T05:07:01.691Z,23.10
2019-06-26T05:09:32.050Z,23.10
2019-06-26T05:12:02.493Z,23.20
2019-06-26T05:14:32.927Z,23.20
2019-06-26T05:17:03.375Z,23.30
2019-06-26T05:19:33.783Z,23.30
2019-06-26T05:22:04.216Z,23.40
2019-06-26T05:24:34.569Z,23.40
2019-06-26T05:27:04.988Z,23.50
2019-06-26T05:29:35.461Z,23.50
2019-06-26T05:32:06.838Z,23.60
2019-06-26T05:34:37.211Z,23.60
2019-06-26T05:37:07.657Z,23.70
2019-06-26T05:39:38.066Z,23.80
2019-06-26T05:42:08.461Z,23.80
2019-06-26T05:44:38.844Z,24.00
2019-06-26T05:47:09.225Z,24.00
2019-06-26T05:49:39.613Z,24.10
2019-06-26T05:52:10.000Z,24.20
2019-06-26T05:54:40.383Z,24.30
2019-06-26T05:57:10.780Z,24.40
2019-06-26T05:59:41.196Z,24.50
2019-06-26T06:02:11.858Z,24.60
2019-06-26T06:04:42.371Z,24.60
2019-06-26T06:07:12.874Z,24.70
2019-06-26T06:09:43.401Z,24.80
2019-06-26T06:12:13.873Z,24.90
2019-06-26T06:14:44.381Z,25.00
2019-06-26T06:17:14.880Z,25.00
2019-06-26T06:19:45.759Z,25.10
2019-06-26T06:22:16.579Z,25.20
2019-06-26T06:24:47.218Z,25.30
2019-06-26T06:27:18.262Z,25.40
2019-06-26T06:29:48.958Z,25.40
2019-06-26T06:32:19.572Z,25.60
2019-06-26T06:34:50.064Z,25.70
2019-06-26T06:37:20.535Z,25.70
2019-06-26T06:39:51.035Z,25.90
2019-06-26T06:42:23.437Z,25.90
2019-06-26T06:44:54.071Z,26.10
2019-06-26T06:47:24.534Z,26.20
2019-06-26T06:49:55.078Z,26.30
2019-06-26T06:52:25.602Z,26.40
2019-06-26T06:54:56.152Z,26.50
2019-06-26T06:57:26.653Z,26.60
2019-06-26T06:59:57.127Z,26.70
2019-06-26T07:02:27.559Z,26.70
2019-06-26T07:04:58.029Z,26.80
2019-06-26T07:07:28.660Z,26.80
2019-06-26T07:09:59.151Z,26.80
2019-06-26T07:12:29.696Z,26.90
2019-06-26T07:15:00.271Z,26.80
2019-06-26T07:17:30.700Z,26.90
2019-06-26T07:20:01.303Z,26.90
2019-06-26T07:22:31.751Z,26.90
2019-06-26T07:25:02.273Z,27.00
2019-06-26T07:27:32.749Z,27.00
2019-06-26T07:30:03.184Z,27.10
2019-06-26T07:32:33.756Z,27.20
2019-06-26T07:35:04.678Z,27.40
2019-06-26T07:37:35.155Z,27.50
2019-06-26T07:40:06.366Z,27.60
2019-06-26T07:42:36.834Z,27.70
2019-06-26T07:45:08.827Z,27.70
2019-06-26T07:47:43.784Z,27.80
2019-06-26T07:50:12.199Z,27.90
2019-06-26T07:52:42.921Z,28.00
2019-06-26T07:55:13.896Z,28.10
2019-06-26T07:57:44.407Z,28.10
2019-06-26T08:00:15.714Z,28.20
2019-06-26T08:02:46.286Z,28.20
2019-06-26T08:05:17.163Z,28.30
2019-06-26T08:07:47.671Z,28.30
2019-06-26T08:10:18.395Z,28.40
2019-06-26T08:12:48.907Z,28.40
2019-06-26T08:15:20.385Z,28.50
2019-06-26T08:18:00.685Z,28.60
2019-06-26T08:20:23.376Z,28.70
2019-06-26T08:22:53.893Z,28.80
2019-06-26T08:25:24.341Z,28.90
2019-06-26T08:27:54.806Z,29.00
2019-06-26T08:30:26.735Z,29.10
2019-06-26T08:32:58.052Z,29.10
2019-06-26T08:35:28.591Z,29.20
2019-06-26T08:38:09.692Z,29.20
2019-06-26T08:40:31.607Z,29.30
2019-06-26T08:43:02.261Z,29.30
2019-06-26T08:45:32.718Z,29.30
2019-06-26T08:48:18.973Z,29.40
2019-06-26T08:50:35.412Z,29.40
2019-06-26T08:53:06.005Z,29.40
2019-06-26T08:55:36.570Z,29.40
2019-06-26T08:58:07.229Z,29.50
2019-06-26T09:00:37.677Z,29.60
2019-06-26T09:03:08.166Z,29.60
2019-06-26T09:05:48.169Z,29.70
2019-06-26T09:08:11.302Z,29.70
2019-06-26T09:10:44.894Z,29.70
2019-06-26T09:13:14.198Z,29.80
2019-06-26T09:15:49.381Z,29.90
2019-06-26T09:18:31.102Z,29.90
2019-06-26T09:20:49.221Z,29.90
2019-06-26T09:23:19.728Z,29.90
2019-06-26T09:25:50.217Z,29.90
2019-06-26T09:28:22.101Z,29.80
2019-06-26T09:30:52.655Z,29.80
2019-06-26T09:33:25.506Z,29.80
2019-06-26T09:35:56.215Z,29.70
2019-06-26T09:38:26.669Z,29.70
2019-06-26T09:40:57.130Z,29.80
2019-06-26T09:43:27.641Z,29.80
2019-06-26T09:45:58.378Z,29.80
2019-06-26T09:48:28.847Z,29.90
2019-06-26T09:50:59.374Z,29.80
2019-06-26T09:53:45.980Z,29.80
2019-06-26T09:56:02.118Z,29.80
2019-06-26T09:58:32.664Z,29.90
2019-06-26T10:01:03.156Z,29.80
2019-06-26T10:03:33.632Z,29.90
2019-06-26T10:06:04.107Z,29.90
2019-06-26T10:08:34.774Z,30.00
2019-06-26T10:11:05.300Z,30.00
2019-06-26T10:13:35.801Z,30.10
2019-06-26T10:16:06.342Z,30.20
2019-06-26T10:18:38.828Z,30.20
2019-06-26T10:21:09.309Z,30.40
2019-06-26T10:23:39.789Z,30.40
2019-06-26T10:26:10.295Z,30.60
2019-06-26T10:28:40.761Z,30.70
2019-06-26T10:31:11.226Z,30.60
2019-06-26T10:33:41.728Z,30.60
2019-06-26T10:36:12.210Z,30.70
2019-06-26T10:38:42.677Z,30.80
2019-06-26T10:41:13.146Z,30.80
2019-06-26T10:43:43.602Z,30.90
2019-06-26T10:46:14.921Z,31.00
2019-06-26T10:48:45.697Z,31.00
2019-06-26T10:51:16.163Z,31.00
2019-06-26T10:53:46.613Z,30.90
2019-06-26T10:56:17.110Z,30.80
2019-06-26T10:58:47.644Z,30.80
2019-06-26T11:01:18.117Z,30.80
2019-06-26T11:03:48.570Z,30.80
2019-06-26T11:06:19.080Z,30.80
2019-06-26T11:08:49.554Z,30.90
2019-06-26T11:11:20.131Z,30.80
2019-06-26T11:13:50.608Z,30.80
2019-06-26T11:16:21.116Z,30.80
2019-06-26T11:18:51.960Z,30.80
2019-06-26T11:21:22.590Z,30.80
2019-06-26T11:23:53.148Z,30.80
2019-06-26T11:26:23.643Z,30.80
2019-06-26T11:28:54.138Z,30.80
2019-06-26T11:31:24.620Z,30.80
2019-06-26T11:33:55.059Z,30.90
2019-06-26T11:36:25.572Z,31.00
2019-06-26T11:38:56.099Z,31.00
2019-06-26T11:41:45.675Z,31.10
2019-06-26T11:44:16.249Z,31.10
2019-06-26T11:46:46.810Z,31.10
2019-06-26T11:49:17.259Z,31.10
2019-06-26T11:51:47.759Z,31.00
2019-06-26T11:54:18.267Z,30.80
2019-06-26T11:56:48.722Z,30.80
2019-06-26T11:59:19.205Z,30.80
2019-06-26T12:01:49.733Z,30.80
2019-06-26T12:04:20.142Z,30.80
2019-06-26T12:06:50.532Z,31.00
2019-06-26T12:09:20.932Z,31.00
2019-06-26T12:11:51.299Z,30.80
2019-06-26T12:14:21.751Z,30.90
2019-06-26T12:16:52.139Z,30.90
2019-06-26T12:19:23.647Z,30.90
2019-06-26T12:21:54.220Z,30.90
2019-06-26T12:24:26.534Z,30.70
2019-06-26T12:27:00.547Z,30.60
2019-06-26T12:29:32.991Z,30.50
2019-06-26T12:32:03.031Z,30.40
2019-06-26T12:34:33.440Z,30.30
2019-06-26T12:37:03.815Z,30.30
2019-06-26T12:39:34.197Z,30.20
2019-06-26T12:42:04.610Z,30.30
2019-06-26T12:44:34.999Z,30.50
2019-06-26T12:47:05.367Z,30.60
2019-06-26T12:49:35.756Z,30.40
2019-06-26T12:52:06.493Z,30.30
2019-06-26T12:54:36.951Z,30.30
2019-06-26T12:57:07.343Z,30.40
2019-06-26T12:59:37.795Z,30.40
2019-06-26T13:02:08.612Z,30.30
2019-06-26T13:04:39.016Z,30.10
2019-06-26T13:07:09.384Z,30.00
2019-06-26T13:09:39.781Z,30.00
2019-06-26T13:12:10.154Z,29.90
2019-06-26T13:14:40.560Z,30.00
2019-06-26T13:17:10.965Z,30.00
2019-06-26T13:19:41.429Z,30.10
2019-06-26T13:22:11.883Z,30.10
2019-06-26T13:24:44.135Z,30.20
2019-06-26T13:27:14.348Z,30.30
2019-06-26T13:29:44.774Z,30.50
2019-06-26T13:32:16.806Z,30.60
2019-06-26T13:34:47.361Z,30.60
2019-06-26T13:37:17.747Z,30.60
2019-06-26T13:39:48.153Z,30.80
2019-06-26T13:42:18.535Z,31.00
2019-06-26T13:44:48.984Z,31.00
2019-06-26T13:47:19.362Z,31.00
2019-06-26T13:49:49.761Z,31.00
2019-06-26T13:52:20.137Z,31.00
2019-06-26T13:54:50.506Z,31.10
2019-06-26T13:57:20.972Z,31.10
2019-06-26T13:59:51.355Z,31.10
2019-06-26T14:02:21.757Z,31.10
2019-06-26T14:04:52.127Z,31.00
2019-06-26T14:07:22.516Z,31.00
2019-06-26T14:09:52.896Z,31.00
2019-06-26T14:12:23.272Z,31.30
2019-06-26T14:14:57.645Z,31.50
2019-06-26T14:17:25.771Z,31.70
2019-06-26T14:19:56.182Z,31.90
2019-06-26T14:22:26.653Z,31.90
2019-06-26T14:24:57.015Z,31.90
2019-06-26T14:27:27.409Z,31.60
2019-06-26T14:29:57.803Z,31.40
2019-06-26T14:32:28.203Z,31.10
2019-06-26T14:34:58.570Z,31.10
2019-06-26T14:37:29.016Z,31.30
2019-06-26T14:39:59.423Z,31.20
2019-06-26T14:42:29.829Z,31.10
2019-06-26T14:45:00.195Z,30.90
2019-06-26T14:47:30.590Z,30.60
2019-06-26T14:50:00.963Z,30.70
2019-06-26T14:52:34.828Z,30.60
2019-06-26T14:55:03.480Z,30.80
2019-06-26T14:57:33.894Z,31.10
2019-06-26T15:00:06.311Z,31.30
2019-06-26T15:02:36.698Z,31.50
2019-06-26T15:05:07.483Z,31.50
2019-06-26T15:07:37.865Z,31.50
2019-06-26T15:10:09.096Z,31.50
2019-06-26T15:12:39.508Z,31.50
2019-06-26T15:15:12.594Z,31.60
2019-06-26T15:17:43.060Z,31.70
2019-06-26T15:20:15.299Z,31.60
2019-06-26T15:22:45.765Z,31.30
2019-06-26T15:25:16.945Z,31.10
2019-06-26T15:27:47.437Z,31.10
2019-06-26T15:30:19.747Z,31.10
2019-06-26T15:32:50.143Z,31.00
2019-06-26T15:35:20.536Z,30.80
2019-06-26T15:37:50.943Z,30.70
2019-06-26T15:40:21.335Z,30.80
2019-06-26T15:42:51.765Z,30.30
2019-06-26T15:45:22.131Z,30.10
2019-06-26T15:47:52.526Z,30.10
2019-06-26T15:50:23.289Z,30.30
2019-06-26T15:52:56.112Z,30.30
2019-06-26T15:55:27.008Z,30.30
2019-06-26T15:57:57.550Z,30.40
2019-06-26T16:00:27.984Z,30.40
2019-06-26T16:02:58.403Z,30.60
2019-06-26T16:05:28.782Z,30.40
2019-06-26T16:07:59.193Z,30.30
2019-06-26T16:10:29.571Z,29.80
2019-06-26T16:12:59.945Z,29.50
2019-06-26T16:15:30.444Z,29.20
2019-06-26T16:18:09.165Z,29.10
2019-06-26T16:20:39.581Z,29.00
2019-06-26T16:23:12.497Z,29.00
2019-06-26T16:25:43.542Z,29.00
2019-06-26T16:28:13.918Z,28.80
2019-06-26T16:30:44.345Z,28.80
2019-06-26T16:33:14.748Z,28.70
2019-06-26T16:35:45.150Z,28.50
2019-06-26T16:38:15.519Z,28.50
2019-06-26T16:40:45.918Z,28.40
2019-06-26T16:43:16.286Z,28.20
2019-06-26T16:45:46.680Z,27.80
2019-06-26T16:48:17.069Z,27.60
2019-06-26T16:50:47.472Z,27.20
2019-06-26T16:53:17.991Z,27.00
2019-06-26T16:55:48.399Z,26.70
2019-06-26T16:58:18.772Z,26.60
2019-06-26T17:00:49.177Z,26.40
2019-06-26T17:03:19.604Z,26.30
2019-06-26T17:05:50.065Z,26.00
2019-06-26T17:08:20.494Z,26.00
2019-06-26T17:10:50.942Z,25.90
2019-06-26T17:13:21.469Z,25.80
2019-06-26T17:15:51.882Z,25.70
2019-06-26T17:18:22.262Z,25.60
2019-06-26T17:20:52.693Z,25.50
2019-06-26T17:23:23.101Z,25.30
2019-06-26T17:25:53.504Z,25.00
2019-06-26T17:28:23.898Z,24.80
2019-06-26T17:30:54.286Z,24.60
2019-06-26T17:33:24.667Z,24.50
2019-06-26T17:35:55.075Z,24.60
2019-06-26T17:38:25.452Z,24.40
2019-06-26T17:40:59.328Z,24.30
2019-06-26T17:43:27.973Z,24.20
2019-06-26T17:45:58.377Z,24.10
2019-06-26T17:48:28.758Z,23.90
2019-06-26T17:50:59.162Z,23.70
2019-06-26T17:53:29.535Z,23.70
2019-06-26T17:55:59.926Z,23.60
2019-06-26T17:58:30.309Z,23.40
2019-06-26T18:01:00.704Z,23.30
2019-06-26T18:03:31.106Z,23.20
2019-06-26T18:06:01.583Z,23.00
2019-06-26T18:08:31.983Z,22.80
2019-06-26T18:11:02.404Z,22.60
2019-06-26T18:13:32.772Z,22.40
2019-06-26T18:16:03.185Z,22.30
2019-06-26T18:18:33.616Z,22.20
2019-06-26T18:21:04.047Z,22.20
2019-06-26T18:23:38.443Z,22.10
2019-06-26T18:26:12.997Z,22.10
2019-06-26T18:28:38.667Z,22.10
2019-06-26T18:31:09.037Z,22.00
2019-06-26T18:33:39.464Z,21.90
2019-06-26T18:36:09.862Z,21.70
2019-06-26T18:38:40.255Z,21.60
2019-06-26T18:41:10.631Z,21.50
2019-06-26T18:43:41.121Z,21.40
2019-06-26T18:46:11.560Z,21.30
2019-06-26T18:48:42.004Z,21.20
2019-06-26T18:51:12.389Z,21.00
2019-06-26T18:53:53.077Z,20.90
2019-06-26T18:56:15.059Z,20.90
2019-06-26T18:58:46.384Z,20.80
2019-06-26T19:01:17.255Z,20.80
2019-06-26T19:03:47.959Z,20.70
2019-06-26T19:06:21.222Z,20.70
2019-06-26T19:08:51.752Z,20.70
2019-06-26T19:11:22.355Z,20.80
2019-06-26T19:13:57.428Z,20.80
2019-06-26T19:16:27.863Z,20.70
2019-06-26T19:18:59.576Z,20.50
2019-06-26T19:21:30.341Z,20.40
2019-06-26T19:24:10.429Z,20.30
2019-06-26T19:26:43.316Z,20.30
2019-06-26T19:29:15.308Z,20.40
2019-06-26T19:31:45.706Z,20.30
2019-06-26T19:34:16.110Z,20.30
2019-06-26T19:36:50.858Z,20.20
2019-06-26T19:39:21.491Z,20.20
2019-06-26T19:41:52.122Z,20.20
2019-06-26T19:44:22.702Z,20.20
2019-06-26T19:46:53.436Z,20.20
2019-06-26T19:49:23.870Z,20.30
2019-06-26T19:51:54.268Z,20.20
2019-06-26T19:54:27.725Z,20.20
2019-06-26T19:56:56.797Z,20.20
2019-06-26T19:59:27.224Z,20.20
2019-06-26T20:01:57.585Z,20.10
2019-06-26T20:04:28.008Z,20.10
2019-06-26T20:06:58.517Z,20.00
2019-06-26T20:09:28.967Z,20.00
2019-06-26T20:11:59.368Z,20.10
2019-06-26T20:14:29.796Z,20.10
2019-06-26T20:17:00.168Z,20.00
2019-06-26T20:19:30.560Z,20.00
2019-06-26T20:22:00.977Z,20.00
2019-06-26T20:24:43.371Z,20.00
2019-06-26T20:27:03.459Z,20.00
2019-06-26T20:29:33.940Z,20.10
2019-06-26T20:32:04.315Z,20.10
2019-06-26T20:34:34.804Z,20.10
2019-06-26T20:37:05.168Z,20.10
2019-06-26T20:39:35.718Z,20.20
2019-06-26T20:42:06.409Z,20.20
2019-06-26T20:44:37.797Z,20.20
2019-06-26T20:47:08.199Z,20.20
2019-06-26T20:49:52.303Z,20.20
2019-06-26T20:52:10.880Z,20.20
2019-06-26T20:54:41.280Z,20.10
2019-06-26T20:57:11.685Z,20.10
2019-06-26T20:59:42.125Z,19.90
2019-06-26T21:02:12.584Z,19.80
2019-06-26T21:04:42.985Z,19.80
2019-06-26T21:07:13.379Z,19.70
2019-06-26T21:09:43.825Z,19.70
2019-06-26T21:12:14.317Z,19.60
2019-06-26T21:14:44.739Z,19.60
2019-06-26T21:17:15.120Z,19.50
2019-06-26T21:19:45.541Z,19.40
2019-06-26T21:22:15.993Z,19.40
2019-06-26T21:24:46.413Z,19.40
2019-06-26T21:27:18.179Z,19.40
2019-06-26T21:29:48.755Z,19.40
2019-06-26T21:32:19.328Z,19.40
2019-06-26T21:34:49.736Z,19.40
2019-06-26T21:37:20.134Z,19.40
2019-06-26T21:39:50.516Z,19.50
2019-06-26T21:42:20.955Z,19.60
2019-06-26T21:44:51.337Z,19.60
2019-06-26T21:47:21.789Z,19.60
2019-06-26T21:49:52.179Z,19.60
2019-06-26T21:52:22.576Z,19.60
2019-06-26T21:54:52.947Z,19.60
2019-06-26T21:57:23.398Z,19.60
2019-06-26T21:59:53.840Z,19.60
2019-06-26T22:02:24.707Z,19.50
2019-06-26T22:04:55.232Z,19.50
2019-06-26T22:07:25.621Z,19.40
2019-06-26T22:09:57.039Z,19.40
2019-06-26T22:12:27.478Z,19.40
2019-06-26T22:14:57.865Z,19.30
2019-06-26T22:17:28.249Z,19.30
2019-06-26T22:19:58.623Z,19.20
2019-06-26T22:22:29.046Z,19.20
2019-06-26T22:24:59.439Z,19.10
2019-06-26T22:27:29.846Z,19.10
2019-06-26T22:30:00.253Z,19.10
2019-06-26T22:32:30.656Z,19.00
2019-06-26T22:35:01.094Z,19.10
2019-06-26T22:37:31.754Z,19.10
2019-06-26T22:40:02.134Z,19.00
2019-06-26T22:42:32.530Z,19.00
2019-06-26T22:45:02.906Z,19.10
2019-06-26T22:47:33.308Z,19.00
2019-06-26T22:50:03.701Z,19.00
2019-06-26T22:52:34.084Z,18.90
2019-06-26T22:55:05.731Z,18.90
2019-06-26T22:57:36.144Z,18.90
2019-06-26T23:00:07.501Z,18.80
2019-06-26T23:02:37.959Z,18.80
2019-06-26T23:05:08.702Z,18.80
2019-06-26T23:07:39.087Z,18.80
2019-06-26T23:10:09.661Z,18.80
2019-06-26T23:12:40.060Z,18.80
2019-06-26T23:15:11.257Z,18.90
2019-06-26T23:17:41.693Z,18.90
2019-06-26T23:20:12.262Z,18.80
2019-06-26T23:22:42.694Z,18.70
2019-06-26T23:25:13.208Z,18.60
2019-06-26T23:27:43.579Z,18.50
2019-06-26T23:30:20.262Z,18.40
2019-06-26T23:32:50.740Z,18.30
2019-06-26T23:35:21.114Z,18.30
2019-06-26T23:37:51.524Z,18.20
2019-06-26T23:40:22.160Z,18.10
2019-06-26T23:42:52.572Z,18.00
2019-06-26T23:45:22.966Z,18.00
2019-06-26T23:47:53.387Z,17.90
2019-06-26T23:50:23.777Z,17.90
2019-06-26T23:52:54.174Z,17.80
2019-06-26T23:55:24.581Z,17.80
2019-06-26T23:57:59.347Z,17.80
